Aviation Digital Data Service (ADDS)

Output produced by METARs form (0828 UTC 23 January 2017)
found at http://aviationweather.gov/adds/metars/
 
KLYH 230520Z 2306/2406 06010G20KT 3SM -RA BR BKN004 OVC013 
     TEMPO 2308/2312 1SM RA BR 
     FM231600 05008KT 4SM -RA BR BKN004 OVC012 
     FM231900 03007KT P6SM -SHRA SCT007 OVC015 
     FM240200 01006KT P6SM VCSH BKN025